sensor_id;sensor_type;location;lat;lon;timestamp;pressure;altitude;pressure_sealevel;temperature;humidity
32747;BME280;19118;50.860;13.662;2023-12-22T00:00:52;94411.81;;;5.05;100.00
32747;BME280;19118;50.860;13.662;2023-12-22T00:05:52;94422.44;;;4.57;100.00
32747;BME280;19118;50.860;13.662;2023-12-22T00:10:53;94414.84;;;4.79;100.00
32747;BME280;19118;50.860;13.662;2023-12-22T00:15:53;94401.22;;;4.47;100.00
32747;BME280;19118;50.860;13.662;2023-12-22T00:20:53;94408.09;;;4.29;100.00
32747;BME280;19118;50.860;13.662;2023-12-22T00:25:54;94396.38;;;4.20;100.00
32747;BME280;19118;50.860;13.662;2023-12-22T00:30:54;94398.72;;;4.52;100.00
32747;BME280;19118;50.860;13.662;2023-12-22T00:35:54;94408.69;;;4.31;100.00
32747;BME280;19118;50.860;13.662;2023-12-22T00:40:55;94409.06;;;4.35;100.00
32747;BME280;19118;50.860;13.662;2023-12-22T00:45:55;94379.31;;;4.29;100.00
32747;BME280;19118;50.860;13.662;2023-12-22T00:50:57;94416.78;;;4.42;100.00
32747;BME280;19118;50.860;13.662;2023-12-22T00:55:57;94414.88;;;4.49;100.00
32747;BME280;19118;50.860;13.662;2023-12-22T01:00:58;94412.97;;;4.56;100.00
32747;BME280;19118;50.860;13.662;2023-12-22T01:05:58;94433.78;;;4.51;100.00
32747;BME280;19118;50.860;13.662;2023-12-22T01:10:58;94467.59;;;4.64;100.00
32747;BME280;19118;50.860;13.662;2023-12-22T01:15:59;94458.97;;;4.63;100.00
32747;BME280;19118;50.860;13.662;2023-12-22T01:20:59;94450.91;;;4.65;100.00
32747;BME280;19118;50.860;13.662;2023-12-22T01:25:59;94447.50;;;4.34;100.00
32747;BME280;19118;50.860;13.662;2023-12-22T01:31:01;94445.00;;;4.39;100.00
32747;BME280;19118;50.860;13.662;2023-12-22T01:36:02;94473.34;;;4.43;100.00
32747;BME280;19118;50.860;13.662;2023-12-22T01:41:03;94474.78;;;4.38;100.00
32747;BME280;19118;50.860;13.662;2023-12-22T01:46:03;94498.06;;;4.28;100.00
32747;BME280;19118;50.860;13.662;2023-12-22T01:51:05;94511.00;;;4.23;100.00
32747;BME280;19118;50.860;13.662;2023-12-22T01:56:07;94496.75;;;4.37;100.00
32747;BME280;19118;50.860;13.662;2023-12-22T02:01:08;94475.91;;;4.31;100.00
32747;BME280;19118;50.860;13.662;2023-12-22T02:06:08;94502.28;;;4.29;100.00
32747;BME280;19118;50.860;13.662;2023-12-22T02:11:09;94487.94;;;4.50;100.00
32747;BME280;19118;50.860;13.662;2023-12-22T02:16:39;94519.50;;;4.19;100.00
32747;BME280;19118;50.860;13.662;2023-12-22T02:22:00;94527.72;;;4.04;100.00
32747;BME280;19118;50.860;13.662;2023-12-22T02:27:09;94517.56;;;3.77;100.00
32747;BME280;19118;50.860;13.662;2023-12-22T02:32:14;94521.78;;;3.54;100.00
32747;BME280;19118;50.860;13.662;2023-12-22T02:37:18;94501.00;;;3.15;100.00
32747;BME280;19118;50.860;13.662;2023-12-22T02:42:21;94510.44;;;3.16;100.00
32747;BME280;19118;50.860;13.662;2023-12-22T02:47:23;94525.47;;;3.21;100.00
32747;BME280;19118;50.860;13.662;2023-12-22T02:52:23;94527.72;;;3.17;100.00
32747;BME280;19118;50.860;13.662;2023-12-22T02:57:24;94519.59;;;3.26;100.00
32747;BME280;19118;50.860;13.662;2023-12-22T03:02:24;94497.13;;;3.25;100.00
32747;BME280;19118;50.860;13.662;2023-12-22T03:07:25;94495.38;;;3.18;100.00
32747;BME280;19118;50.860;13.662;2023-12-22T03:12:25;94484.81;;;3.32;100.00
32747;BME280;19118;50.860;13.662;2023-12-22T03:17:25;94475.56;;;3.54;100.00
32747;BME280;19118;50.860;13.662;2023-12-22T03:22:26;94467.88;;;3.41;100.00
32747;BME280;19118;50.860;13.662;2023-12-22T03:27:26;94489.69;;;3.46;100.00
32747;BME280;19118;50.860;13.662;2023-12-22T03:32:26;94514.91;;;3.59;100.00
32747;BME280;19118;50.860;13.662;2023-12-22T03:37:27;94493.84;;;3.72;100.00
32747;BME280;19118;50.860;13.662;2023-12-22T03:42:27;94488.28;;;3.69;100.00
32747;BME280;19118;50.860;13.662;2023-12-22T03:47:27;94484.44;;;3.90;100.00
32747;BME280;19118;50.860;13.662;2023-12-22T03:52:28;94489.66;;;3.90;100.00
32747;BME280;19118;50.860;13.662;2023-12-22T03:57:28;94479.38;;;3.76;100.00
32747;BME280;19118;50.860;13.662;2023-12-22T04:02:28;94487.63;;;3.92;100.00
32747;BME280;19118;50.860;13.662;2023-12-22T04:07:28;94489.66;;;3.90;100.00
32747;BME280;19118;50.860;13.662;2023-12-22T04:12:29;94499.41;;;4.01;100.00
32747;BME280;19118;50.860;13.662;2023-12-22T04:17:29;94504.34;;;4.09;100.00
32747;BME280;19118;50.860;13.662;2023-12-22T04:22:30;94506.28;;;4.14;100.00
32747;BME280;19118;50.860;13.662;2023-12-22T04:27:30;94496.44;;;3.97;100.00
32747;BME280;19118;50.860;13.662;2023-12-22T04:32:30;94500.41;;;3.82;100.00
32747;BME280;19118;50.860;13.662;2023-12-22T04:37:31;94490.97;;;3.80;100.00
32747;BME280;19118;50.860;13.662;2023-12-22T04:42:31;94491.56;;;4.01;100.00
32747;BME280;19118;50.860;13.662;2023-12-22T04:47:31;94495.25;;;3.93;100.00
32747;BME280;19118;50.860;13.662;2023-12-22T04:52:32;94496.63;;;3.77;100.00
32747;BME280;19118;50.860;13.662;2023-12-22T04:57:32;94484.63;;;4.06;100.00
32747;BME280;19118;50.860;13.662;2023-12-22T05:02:32;94502.81;;;3.65;100.00
32747;BME280;19118;50.860;13.662;2023-12-22T05:07:33;94505.06;;;3.79;100.00
32747;BME280;19118;50.860;13.662;2023-12-22T05:12:33;94508.06;;;3.58;100.00
32747;BME280;19118;50.860;13.662;2023-12-22T05:17:33;94472.22;;;3.47;100.00
32747;BME280;19118;50.860;13.662;2023-12-22T05:22:34;94485.28;;;3.47;100.00
32747;BME280;19118;50.860;13.662;2023-12-22T05:27:34;94502.34;;;3.25;100.00
32747;BME280;19118;50.860;13.662;2023-12-22T05:32:34;94492.44;;;3.33;100.00
32747;BME280;19118;50.860;13.662;2023-12-22T05:37:35;94508.31;;;3.32;100.00
32747;BME280;19118;50.860;13.662;2023-12-22T05:42:35;94479.31;;;3.40;100.00
32747;BME280;19118;50.860;13.662;2023-12-22T05:47:35;94501.75;;;3.22;100.00
32747;BME280;19118;50.860;13.662;2023-12-22T05:52:36;94477.81;;;3.26;100.00
32747;BME280;19118;50.860;13.662;2023-12-22T05:57:36;94496.28;;;3.31;100.00
32747;BME280;19118;50.860;13.662;2023-12-22T06:02:37;94487.88;;;3.29;100.00
32747;BME280;19118;50.860;13.662;2023-12-22T06:07:38;94526.38;;;3.33;100.00
32747;BME280;19118;50.860;13.662;2023-12-22T06:12:39;94517.78;;;3.26;100.00
32747;BME280;19118;50.860;13.662;2023-12-22T06:17:39;94534.88;;;3.29;100.00
32747;BME280;19118;50.860;13.662;2023-12-22T06:22:39;94536.25;;;3.31;100.00
32747;BME280;19118;50.860;13.662;2023-12-22T06:27:40;94525.16;;;3.36;100.00
32747;BME280;19118;50.860;13.662;2023-12-22T06:32:40;94520.25;;;3.46;100.00
32747;BME280;19118;50.860;13.662;2023-12-22T06:37:41;94531.66;;;3.27;100.00
32747;BME280;19118;50.860;13.662;2023-12-22T06:42:42;94535.81;;;3.09;100.00
32747;BME280;19118;50.860;13.662;2023-12-22T06:47:42;94519.38;;;3.02;100.00
32747;BME280;19118;50.860;13.662;2023-12-22T06:52:43;94522.22;;;3.01;100.00
32747;BME280;19118;50.860;13.662;2023-12-22T06:57:43;94522.66;;;3.22;100.00
32747;BME280;19118;50.860;13.662;2023-12-22T07:02:43;94518.16;;;3.05;100.00
32747;BME280;19118;50.860;13.662;2023-12-22T07:07:44;94537.44;;;3.04;100.00
32747;BME280;19118;50.860;13.662;2023-12-22T07:12:44;94520.88;;;3.16;100.00
32747;BME280;19118;50.860;13.662;2023-12-22T07:17:45;94545.56;;;2.89;100.00
32747;BME280;19118;50.860;13.662;2023-12-22T07:22:45;94555.50;;;3.05;100.00
32747;BME280;19118;50.860;13.662;2023-12-22T07:27:46;94558.53;;;3.34;100.00
32747;BME280;19118;50.860;13.662;2023-12-22T07:32:46;94551.84;;;3.38;100.00
32747;BME280;19118;50.860;13.662;2023-12-22T07:37:48;94558.16;;;3.30;100.00
32747;BME280;19118;50.860;13.662;2023-12-22T07:42:49;94579.16;;;3.42;100.00
32747;BME280;19118;50.860;13.662;2023-12-22T07:47:50;94588.09;;;3.28;100.00
32747;BME280;19118;50.860;13.662;2023-12-22T07:52:51;94601.16;;;2.96;100.00
32747;BME280;19118;50.860;13.662;2023-12-22T07:57:51;94606.56;;;2.56;100.00
32747;BME280;19118;50.860;13.662;2023-12-22T08:02:51;94601.47;;;2.75;100.00
32747;BME280;19118;50.860;13.662;2023-12-22T08:07:52;94612.31;;;2.72;100.00
32747;BME280;19118;50.860;13.662;2023-12-22T08:12:53;94615.53;;;2.74;100.00
32747;BME280;19118;50.860;13.662;2023-12-22T08:17:53;94609.81;;;2.90;100.00
32747;BME280;19118;50.860;13.662;2023-12-22T08:22:54;94622.28;;;2.81;100.00
32747;BME280;19118;50.860;13.662;2023-12-22T08:27:54;94641.47;;;3.07;100.00
32747;BME280;19118;50.860;13.662;2023-12-22T08:32:54;94641.03;;;3.10;100.00
32747;BME280;19118;50.860;13.662;2023-12-22T08:37:55;94644.34;;;2.92;100.00
32747;BME280;19118;50.860;13.662;2023-12-22T08:42:55;94619.66;;;2.88;100.00
32747;BME280;19118;50.860;13.662;2023-12-22T08:47:59;94650.47;;;2.73;100.00
32747;BME280;19118;50.860;13.662;2023-12-22T08:53:00;94676.50;;;2.86;100.00
32747;BME280;19118;50.860;13.662;2023-12-22T08:58:01;94667.13;;;2.58;100.00
32747;BME280;19118;50.860;13.662;2023-12-22T09:03:01;94669.69;;;2.85;100.00
32747;BME280;19118;50.860;13.662;2023-12-22T09:08:02;94684.28;;;2.92;100.00
32747;BME280;19118;50.860;13.662;2023-12-22T09:13:03;94702.69;;;2.46;100.00
32747;BME280;19118;50.860;13.662;2023-12-22T09:18:03;94719.09;;;2.73;100.00
32747;BME280;19118;50.860;13.662;2023-12-22T09:23:04;94715.31;;;3.14;100.00
32747;BME280;19118;50.860;13.662;2023-12-22T09:28:08;94719.69;;;3.27;100.00
32747;BME280;19118;50.860;13.662;2023-12-22T09:33:11;94730.63;;;3.10;100.00
32747;BME280;19118;50.860;13.662;2023-12-22T09:38:12;94729.31;;;3.33;100.00
32747;BME280;19118;50.860;13.662;2023-12-22T09:43:14;94741.94;;;3.36;100.00
32747;BME280;19118;50.860;13.662;2023-12-22T09:48:16;94737.09;;;3.39;100.00
32747;BME280;19118;50.860;13.662;2023-12-22T09:53:19;94753.91;;;3.57;100.00
32747;BME280;19118;50.860;13.662;2023-12-22T09:58:20;94749.16;;;3.78;100.00
32747;BME280;19118;50.860;13.662;2023-12-22T10:03:21;94729.16;;;3.59;100.00
32747;BME280;19118;50.860;13.662;2023-12-22T10:08:22;94730.03;;;3.46;100.00
32747;BME280;19118;50.860;13.662;2023-12-22T10:13:23;94726.78;;;3.51;100.00
32747;BME280;19118;50.860;13.662;2023-12-22T10:18:23;94739.13;;;3.75;100.00
32747;BME280;19118;50.860;13.662;2023-12-22T10:23:24;94770.81;;;3.54;100.00
32747;BME280;19118;50.860;13.662;2023-12-22T10:28:27;94787.00;;;3.69;100.00
32747;BME280;19118;50.860;13.662;2023-12-22T10:33:29;94769.56;;;3.63;100.00
32747;BME280;19118;50.860;13.662;2023-12-22T10:38:33;94810.63;;;2.85;100.00
32747;BME280;19118;50.860;13.662;2023-12-22T10:43:40;94809.44;;;2.34;100.00
32747;BME280;19118;50.860;13.662;2023-12-22T10:48:40;94788.97;;;2.51;100.00
32747;BME280;19118;50.860;13.662;2023-12-22T10:53:42;94794.78;;;2.67;100.00
32747;BME280;19118;50.860;13.662;2023-12-22T10:58:42;94805.78;;;2.88;100.00
32747;BME280;19118;50.860;13.662;2023-12-22T11:03:48;94781.53;;;2.75;100.00
32747;BME280;19118;50.860;13.662;2023-12-22T11:08:52;94775.88;;;2.78;100.00
32747;BME280;19118;50.860;13.662;2023-12-22T11:13:55;94794.78;;;3.38;100.00
32747;BME280;19118;50.860;13.662;2023-12-22T11:18:56;94780.38;;;3.29;100.00
32747;BME280;19118;50.860;13.662;2023-12-22T11:23:58;94779.47;;;3.48;100.00
32747;BME280;19118;50.860;13.662;2023-12-22T11:28:59;94776.59;;;3.63;100.00
32747;BME280;19118;50.860;13.662;2023-12-22T11:34:04;94757.75;;;3.47;100.00
32747;BME280;19118;50.860;13.662;2023-12-22T11:39:05;94752.59;;;3.41;100.00
32747;BME280;19118;50.860;13.662;2023-12-22T11:44:06;94743.94;;;3.78;100.00
32747;BME280;19118;50.860;13.662;2023-12-22T11:49:06;94748.84;;;3.93;100.00
32747;BME280;19118;50.860;13.662;2023-12-22T11:59:48;94714.47;;;4.21;100.00
32747;BME280;19118;50.860;13.662;2023-12-22T12:04:50;94713.63;;;4.46;100.00
32747;BME280;19118;50.860;13.662;2023-12-22T12:09:51;94722.63;;;4.31;100.00
32747;BME280;19118;50.860;13.662;2023-12-22T12:14:55;94708.50;;;4.76;100.00
32747;BME280;19118;50.860;13.662;2023-12-22T12:19:58;94714.66;;;4.63;100.00
32747;BME280;19118;50.860;13.662;2023-12-22T12:24:59;94704.72;;;4.72;100.00
32747;BME280;19118;50.860;13.662;2023-12-22T12:30:07;94678.69;;;4.58;100.00
32747;BME280;19118;50.860;13.662;2023-12-22T12:35:09;94680.19;;;4.84;100.00
32747;BME280;19118;50.860;13.662;2023-12-22T12:40:11;94694.75;;;4.44;100.00
32747;BME280;19118;50.860;13.662;2023-12-22T12:45:11;94706.63;;;4.21;100.00
32747;BME280;19118;50.860;13.662;2023-12-22T12:50:11;94701.59;;;2.80;100.00
32747;BME280;19118;50.860;13.662;2023-12-22T12:55:12;94716.75;;;2.32;100.00
32747;BME280;19118;50.860;13.662;2023-12-22T13:00:14;94699.50;;;2.24;100.00
32747;BME280;19118;50.860;13.662;2023-12-22T13:05:22;94714.97;;;2.39;100.00
32747;BME280;19118;50.860;13.662;2023-12-22T13:10:24;94706.34;;;2.32;100.00
32747;BME280;19118;50.860;13.662;2023-12-22T13:15:24;94720.97;;;2.33;100.00
32747;BME280;19118;50.860;13.662;2023-12-22T13:20:25;94709.91;;;2.38;100.00
32747;BME280;19118;50.860;13.662;2023-12-22T13:25:25;94717.38;;;2.01;100.00
32747;BME280;19118;50.860;13.662;2023-12-22T13:30:36;94728.00;;;1.99;100.00
32747;BME280;19118;50.860;13.662;2023-12-22T13:35:38;94738.44;;;2.06;100.00
32747;BME280;19118;50.860;13.662;2023-12-22T13:40:39;94772.91;;;2.01;100.00
32747;BME280;19118;50.860;13.662;2023-12-22T13:45:39;94753.47;;;1.97;100.00
32747;BME280;19118;50.860;13.662;2023-12-22T13:50:40;94755.28;;;2.17;100.00
32747;BME280;19118;50.860;13.662;2023-12-22T13:55:40;94749.66;;;2.13;100.00
32747;BME280;19118;50.860;13.662;2023-12-22T14:00:43;94762.69;;;2.33;100.00
32747;BME280;19118;50.860;13.662;2023-12-22T14:05:45;94740.44;;;2.11;100.00
32747;BME280;19118;50.860;13.662;2023-12-22T14:10:46;94749.44;;;2.01;100.00
32747;BME280;19118;50.860;13.662;2023-12-22T14:15:47;94751.28;;;2.08;100.00
32747;BME280;19118;50.860;13.662;2023-12-22T14:20:47;94751.28;;;2.21;100.00
32747;BME280;19118;50.860;13.662;2023-12-22T14:25:47;94764.88;;;2.03;100.00
32747;BME280;19118;50.860;13.662;2023-12-22T14:30:48;94748.25;;;2.24;100.00
32747;BME280;19118;50.860;13.662;2023-12-22T14:35:48;94744.84;;;2.30;100.00
32747;BME280;19118;50.860;13.662;2023-12-22T14:40:49;94773.31;;;1.98;100.00
32747;BME280;19118;50.860;13.662;2023-12-22T14:45:49;94750.88;;;2.11;100.00
32747;BME280;19118;50.860;13.662;2023-12-22T14:50:49;94764.69;;;2.24;100.00
32747;BME280;19118;50.860;13.662;2023-12-22T14:55:50;94743.66;;;2.32;100.00
32747;BME280;19118;50.860;13.662;2023-12-22T15:00:53;94764.28;;;2.47;100.00
32747;BME280;19118;50.860;13.662;2023-12-22T15:05:53;94742.06;;;2.18;100.00
32747;BME280;19118;50.860;13.662;2023-12-22T15:10:54;94747.03;;;2.46;100.00
32747;BME280;19118;50.860;13.662;2023-12-22T15:15:54;94766.09;;;2.00;100.00
32747;BME280;19118;50.860;13.662;2023-12-22T15:20:57;94762.50;;;2.15;100.00
32747;BME280;19118;50.860;13.662;2023-12-22T15:25:58;94767.09;;;1.99;100.00
32747;BME280;19118;50.860;13.662;2023-12-22T15:30:58;94752.06;;;2.01;100.00
32747;BME280;19118;50.860;13.662;2023-12-22T15:35:58;94752.69;;;2.17;100.00
32747;BME280;19118;50.860;13.662;2023-12-22T15:41:02;94745.88;;;2.29;100.00
32747;BME280;19118;50.860;13.662;2023-12-22T15:46:04;94734.59;;;2.48;100.00
32747;BME280;19118;50.860;13.662;2023-12-22T15:51:09;94730.91;;;2.82;100.00
32747;BME280;19118;50.860;13.662;2023-12-22T15:56:10;94726.72;;;2.75;100.00
32747;BME280;19118;50.860;13.662;2023-12-22T16:01:13;94733.63;;;2.23;100.00
32747;BME280;19118;50.860;13.662;2023-12-22T16:06:17;94723.41;;;2.08;100.00
32747;BME280;19118;50.860;13.662;2023-12-22T16:11:19;94727.59;;;2.02;100.00
32747;BME280;19118;50.860;13.662;2023-12-22T16:16:19;94751.25;;;1.88;100.00
32747;BME280;19118;50.860;13.662;2023-12-22T16:21:19;94766.09;;;1.87;100.00
32747;BME280;19118;50.860;13.662;2023-12-22T16:26:20;94756.47;;;1.88;100.00
32747;BME280;19118;50.860;13.662;2023-12-22T16:31:23;94735.22;;;1.97;100.00
32747;BME280;19118;50.860;13.662;2023-12-22T16:36:24;94750.47;;;2.07;100.00
32747;BME280;19118;50.860;13.662;2023-12-22T16:41:24;94769.50;;;1.94;100.00
32747;BME280;19118;50.860;13.662;2023-12-22T16:46:24;94769.31;;;2.29;100.00
32747;BME280;19118;50.860;13.662;2023-12-22T16:51:25;94788.59;;;2.28;100.00
32747;BME280;19118;50.860;13.662;2023-12-22T16:56:25;94782.53;;;2.01;100.00
32747;BME280;19118;50.860;13.662;2023-12-22T17:01:26;94792.19;;;2.07;100.00
32747;BME280;19118;50.860;13.662;2023-12-22T17:06:28;94813.00;;;2.00;100.00
32747;BME280;19118;50.860;13.662;2023-12-22T17:11:28;94813.41;;;1.84;100.00
32747;BME280;19118;50.860;13.662;2023-12-22T17:16:28;94762.88;;;1.79;100.00
32747;BME280;19118;50.860;13.662;2023-12-22T17:21:29;94788.50;;;1.62;100.00
32747;BME280;19118;50.860;13.662;2023-12-22T17:26:30;94790.72;;;1.78;100.00
32747;BME280;19118;50.860;13.662;2023-12-22T17:31:30;94795.72;;;1.73;100.00
32747;BME280;19118;50.860;13.662;2023-12-22T17:36:31;94789.56;;;1.94;100.00
32747;BME280;19118;50.860;13.662;2023-12-22T17:41:32;94801.78;;;1.93;100.00
32747;BME280;19118;50.860;13.662;2023-12-22T17:46:33;94777.72;;;1.91;100.00
32747;BME280;19118;50.860;13.662;2023-12-22T17:51:34;94772.91;;;2.01;100.00
32747;BME280;19118;50.860;13.662;2023-12-22T17:56:34;94795.78;;;2.26;100.00
32747;BME280;19118;50.860;13.662;2023-12-22T18:01:39;94790.78;;;2.11;100.00
32747;BME280;19118;50.860;13.662;2023-12-22T18:06:40;94792.91;;;1.68;100.00
32747;BME280;19118;50.860;13.662;2023-12-22T18:11:44;94803.56;;;1.86;100.00
32747;BME280;19118;50.860;13.662;2023-12-22T18:16:45;94800.97;;;1.86;100.00
32747;BME280;19118;50.860;13.662;2023-12-22T18:21:46;94795.38;;;1.96;100.00
32747;BME280;19118;50.860;13.662;2023-12-22T18:26:46;94811.03;;;2.16;100.00
32747;BME280;19118;50.860;13.662;2023-12-22T18:31:47;94808.44;;;2.42;100.00
32747;BME280;19118;50.860;13.662;2023-12-22T18:36:48;94809.84;;;2.31;100.00
32747;BME280;19118;50.860;13.662;2023-12-22T18:41:49;94813.06;;;2.27;100.00
32747;BME280;19118;50.860;13.662;2023-12-22T18:46:49;94809.03;;;2.44;100.00
32747;BME280;19118;50.860;13.662;2023-12-22T18:51:49;94810.44;;;2.53;100.00
32747;BME280;19118;50.860;13.662;2023-12-22T18:56:50;94803.63;;;2.52;100.00
32747;BME280;19118;50.860;13.662;2023-12-22T19:01:50;94783.34;;;2.54;100.00
32747;BME280;19118;50.860;13.662;2023-12-22T19:06:51;94793.78;;;2.54;100.00
32747;BME280;19118;50.860;13.662;2023-12-22T19:11:51;94779.72;;;2.55;100.00
32747;BME280;19118;50.860;13.662;2023-12-22T19:16:51;94778.13;;;2.61;100.00
32747;BME280;19118;50.860;13.662;2023-12-22T19:21:53;94812.66;;;2.63;100.00
32747;BME280;19118;50.860;13.662;2023-12-22T19:26:53;94818.06;;;2.61;100.00
32747;BME280;19118;50.860;13.662;2023-12-22T19:31:54;94823.88;;;2.70;100.00
32747;BME280;19118;50.860;13.662;2023-12-22T19:36:54;94835.09;;;2.71;100.00
32747;BME280;19118;50.860;13.662;2023-12-22T19:41:55;94831.69;;;2.70;100.00
32747;BME280;19118;50.860;13.662;2023-12-22T19:46:55;94823.06;;;2.70;100.00
32747;BME280;19118;50.860;13.662;2023-12-22T19:51:55;94819.06;;;2.74;100.00
32747;BME280;19118;50.860;13.662;2023-12-22T19:56:56;94826.28;;;2.65;100.00
32747;BME280;19118;50.860;13.662;2023-12-22T20:01:57;94822.25;;;2.76;100.00
32747;BME280;19118;50.860;13.662;2023-12-22T20:06:58;94824.28;;;2.60;100.00
32747;BME280;19118;50.860;13.662;2023-12-22T20:11:58;94836.13;;;2.56;100.00
32747;BME280;19118;50.860;13.662;2023-12-22T20:16:58;94836.31;;;2.55;100.00
32747;BME280;19118;50.860;13.662;2023-12-22T20:21:59;94845.16;;;2.60;100.00
32747;BME280;19118;50.860;13.662;2023-12-22T20:26:59;94836.34;;;2.61;100.00
32747;BME280;19118;50.860;13.662;2023-12-22T20:32:00;94845.53;;;2.71;100.00
32747;BME280;19118;50.860;13.662;2023-12-22T20:37:00;94848.56;;;2.68;100.00
32747;BME280;19118;50.860;13.662;2023-12-22T20:42:01;94835.72;;;2.73;100.00
32747;BME280;19118;50.860;13.662;2023-12-22T20:47:01;94836.69;;;2.72;100.00
32747;BME280;19118;50.860;13.662;2023-12-22T20:52:02;94855.97;;;2.71;100.00
32747;BME280;19118;50.860;13.662;2023-12-22T20:57:02;94866.81;;;2.68;100.00
32747;BME280;19118;50.860;13.662;2023-12-22T21:02:07;94872.84;;;2.75;100.00
32747;BME280;19118;50.860;13.662;2023-12-22T21:07:07;94868.84;;;2.66;100.00
32747;BME280;19118;50.860;13.662;2023-12-22T21:12:08;94857.19;;;2.68;100.00
32747;BME280;19118;50.860;13.662;2023-12-22T21:17:09;94864.03;;;2.62;100.00
32747;BME280;19118;50.860;13.662;2023-12-22T21:22:09;94871.63;;;2.57;100.00
32747;BME280;19118;50.860;13.662;2023-12-22T21:27:10;94862.78;;;2.72;100.00
32747;BME280;19118;50.860;13.662;2023-12-22T21:32:10;94873.63;;;3.08;100.00
32747;BME280;19118;50.860;13.662;2023-12-22T21:37:11;94874.47;;;2.76;100.00
32747;BME280;19118;50.860;13.662;2023-12-22T21:42:11;94904.16;;;2.88;100.00
32747;BME280;19118;50.860;13.662;2023-12-22T21:47:11;94898.34;;;2.99;100.00
32747;BME280;19118;50.860;13.662;2023-12-22T21:52:13;94888.72;;;2.73;100.00
32747;BME280;19118;50.860;13.662;2023-12-22T21:57:13;94912.59;;;2.63;100.00
32747;BME280;19118;50.860;13.662;2023-12-22T22:02:14;94892.91;;;2.68;100.00
32747;BME280;19118;50.860;13.662;2023-12-22T22:07:15;94903.75;;;2.71;100.00
32747;BME280;19118;50.860;13.662;2023-12-22T22:12:15;94897.94;;;2.76;100.00
32747;BME280;19118;50.860;13.662;2023-12-22T22:17:15;94911.00;;;2.62;100.00
32747;BME280;19118;50.860;13.662;2023-12-22T22:22:16;94938.88;;;2.62;100.00
32747;BME280;19118;50.860;13.662;2023-12-22T22:27:16;94930.03;;;2.56;100.00
32747;BME280;19118;50.860;13.662;2023-12-22T22:32:16;94932.25;;;2.53;100.00
32747;BME280;19118;50.860;13.662;2023-12-22T22:37:18;94920.81;;;2.54;100.00
32747;BME280;19118;50.860;13.662;2023-12-22T22:42:18;94926.44;;;2.71;100.00
32747;BME280;19118;50.860;13.662;2023-12-22T22:47:19;94955.34;;;2.62;100.00
32747;BME280;19118;50.860;13.662;2023-12-22T22:52:19;94940.69;;;2.61;100.00
32747;BME280;19118;50.860;13.662;2023-12-22T22:57:19;94947.44;;;2.36;100.00
32747;BME280;19118;50.860;13.662;2023-12-22T23:02:20;94943.47;;;2.47;100.00
32747;BME280;19118;50.860;13.662;2023-12-22T23:07:21;94952.25;;;2.32;100.00
32747;BME280;19118;50.860;13.662;2023-12-22T23:12:21;94947.44;;;2.36;100.00
32747;BME280;19118;50.860;13.662;2023-12-22T23:17:22;94978.31;;;2.26;100.00
32747;BME280;19118;50.860;13.662;2023-12-22T23:22:24;94972.69;;;2.16;100.00
32747;BME280;19118;50.860;13.662;2023-12-22T23:27:24;94994.72;;;2.13;100.00
32747;BME280;19118;50.860;13.662;2023-12-22T23:32:24;94994.34;;;2.16;100.00
32747;BME280;19118;50.860;13.662;2023-12-22T23:37:25;94993.78;;;2.27;100.00
32747;BME280;19118;50.860;13.662;2023-12-22T23:42:25;94997.22;;;2.41;100.00
32747;BME280;19118;50.860;13.662;2023-12-22T23:47:25;95005.50;;;2.51;100.00
32747;BME280;19118;50.860;13.662;2023-12-22T23:52:26;95066.16;;;2.19;100.00
32747;BME280;19118;50.860;13.662;2023-12-22T23:57:26;95031.75;;;2.02;100.00
